James Cook — MLRM6 — position and weather

sailwx.info

Track history (hours):
 
Tides and Currents Weather Stations Pressure Air Temp Water Temp Dewpoint Dewpoint Depression Visibility Wind Speed Wind Dir Waves Ship Positions

Oceanographic research ship James Cook (UK)

Last reported at 2018-May-27 14:00 UTC. Time now 2018-May-28 01:05 UTC.
Position N 49°00' W 016°24'.

Length 89.2 m; beam 18.6 m; draft 5.7 m.

Type: Other ship. MMSI: 235010700.

Wind from 330 at 15 knots

Barometer 1020.2 mb
Air temperature 12.9 ° C
Visibility: greater than 10.8 NM
Dewpoint 9.8 ° C
Water temperature 12.4 ° C

Date/timePositionNaut miles runAvg speedWind from/ knotsBaromVisibWave heightAir tempDewpointWater temp
2018-May-27 14:00N 49°00' W 016°24'13 1.3 330 / 151020.210.8 12.9 9.812.4
2018-May-27 04:00N 48°48' W 016°30'0 0.0 340 / 131020.710.8 11.0 9.212.8
2018-May-26 04:00N 48°48' W 016°30'23 1.8 020 / 181027.610.8 11.4 8.612.2
2018-May-25 15:00N 49°00' W 016°00'20 3.9 020 / 201029.210.8 12.7 8.712.3
2018-May-25 10:00N 49°00' W 016°30'12 0.6 010 / 191029.3 5.4 11.5 5.712.2
2018-May-24 15:00N 48°48' W 016°30'0 0.0 030 / 261028.0 12.5 7.312.5
2018-May-24 10:00N 48°48' W 016°30'0 0.0 010 / 271026.3 5.4 12.0 6.812.2
2018-May-24 03:00N 48°48' W 016°30'10 0.8 280 / 91023.510.8 11.810.812.3
2018-May-23 15:00N 48°54' W 016°18'6 1.2 170 / 101022.610.8 12.5 9.612.5
2018-May-23 10:00N 49°00' W 016°18'4 0.2 160 / 41023.1 5.4 13.3 9.612.4
2018-May-22 15:00N 49°00' W 016°24'4 0.8 030 / 51024.327.0 12.5 8.512.5
2018-May-22 10:00N 49°00' W 016°18'119 6.2 050 / 51023.7 5.4 12.0 6.812.3
2018-May-21 15:00N 48°18' W 013°30'13 3.2 040 / 281019.9 5.4 11.5 9.512.5
2018-May-21 11:00N 48°06' W 013°36'43 8.6 030 / 271018.3 5.4 12.010.512.5
2018-May-21 06:00N 48°30' W 012°42'11511.2 100 / 101017.0 5.4 12.111.012.7
2018-May-20 19:43N 49°05' W 009°55'210.5
2018-May-20 19:30N 49°06' W 009°52'1210.6
2018-May-20 18:22N 49°10' W 009°34'410.5
2018-May-20 18:00N 49°11' W 009°29'510.7
2018-May-20 17:30N 49°13' W 009°21'610.9
2018-May-20 16:59N 49°15' W 009°13'510.8
2018-May-20 16:30N 49°16' W 009°05'611.4
2018-May-20 16:00N 49°18' W 008°57'611.3
2018-May-20 15:31N 49°20' W 008°49'611.5
2018-May-20 15:00N 49°22' W 008°40'611.7
2018-May-20 14:30N 49°23' W 008°32'611.7
2018-May-20 14:00N 49°25' W 008°23'611.9
2018-May-20 13:30N 49°27' W 008°14'612.0
2018-May-20 13:00N 49°29' W 008°06'611.9
2018-May-20 12:30N 49°31' W 007°57'611.8
2018-May-20 12:01N 49°32' W 007°48'611.8
2018-May-20 11:30N 49°35' W 007°40'611.3
2018-May-20 11:00N 49°37' W 007°32'611.7
2018-May-20 10:30N 49°38' W 007°23'611.2
2018-May-20 10:00N 49°40' W 007°15'511.1
2018-May-20 09:30N 49°41' W 007°06'510.8
2018-May-20 09:00N 49°42' W 006°58'510.6
2018-May-20 08:30N 49°43' W 006°50'610.5
2018-May-20 07:55N 49°43' W 006°41'410.5
2018-May-20 07:30N 49°43' W 006°34'510.6
2018-May-20 07:00N 49°43' W 006°26'610.8
2018-May-20 06:30N 49°43' W 006°17'610.5
2018-May-20 05:57N 49°43' W 006°08'510.7
2018-May-20 05:30N 49°43' W 006°01'510.9
2018-May-20 05:00N 49°43' W 005°53'611.1
2018-May-20 04:30N 49°44' W 005°44'611.5
2018-May-20 04:00N 49°46' W 005°35'612.0
2018-May-20 03:30N 49°47' W 005°27'712.3
2018-May-20 02:57N 49°48' W 005°16'612.7
2018-May-20 02:30N 49°48' W 005°07'612.6
2018-May-20 02:00N 49°50' W 004°58'612.4
2018-May-20 01:30N 49°52' W 004°49'612.2
2018-May-20 01:00N 49°54' W 004°40'612.0
2018-May-20 00:30N 49°56' W 004°31'611.8
2018-May-20 00:00N 49°57' W 004°22'611.4
2018-May-19 23:30N 49°59' W 004°14'611.0
2018-May-19 23:00N 50°01' W 004°06'510.6
2018-May-19 22:30N 50°03' W 003°58'710.1
2018-May-19 21:51N 50°05' W 003°48'3 9.7
2018-May-19 21:30N 50°06' W 003°43'5 9.6
2018-May-19 21:00N 50°07' W 003°36'510.0
2018-May-19 20:30N 50°08' W 003°28'510.2
2018-May-19 20:00N 50°08' W 003°20'510.5
2018-May-19 19:30N 50°10' W 003°13'611.0
2018-May-19 19:00N 50°11' W 003°04'611.5
2018-May-19 18:31N 50°13' W 002°56'612.3
2018-May-19 18:00N 50°14' W 002°46'613.0
2018-May-19 17:30N 50°16' W 002°37'713.7
2018-May-19 17:00N 50°18' W 002°26'714.3
2018-May-19 16:30N 50°20' W 002°16'714.5
2018-May-19 16:01N 50°22' W 002°05'714.3
2018-May-19 15:31N 50°24' W 001°54'713.7
2018-May-19 15:00N 50°26' W 001°43'612.3
2018-May-19 14:31N 50°28' W 001°34'612.1
2018-May-19 14:00N 50°29' W 001°25'611.3
2018-May-19 13:30N 50°31' W 001°16'510.5
2018-May-19 13:00N 50°32' W 001°08'5 9.3
2018-May-19 12:30N 50°34' W 001°02'5 9.1
2018-May-19 12:00N 50°38' W 000°58'510.0
2018-May-19 11:31N 50°43' W 001°01'611.7
2018-May-19 11:00N 50°46' W 001°09'611.4
2018-May-19 10:30N 50°47' W 001°18'4 7.7
2018-May-19 10:00N 50°50' W 001°19'4 7.7
2018-May-19 09:30N 50°53' W 001°24'0 0.5
2018-May-19 08:59N 50°54' W 001°24'0 0.0
2018-May-19 08:29N 50°54' W 001°24'0 0.0
2018-May-19 07:59N 50°54' W 001°24'0 0.0
2018-May-19 07:30N 50°54' W 001°24'0 0.0
2018-May-19 07:00N 50°54' W 001°24'0 0.0
2018-May-19 06:30N 50°54' W 001°24'0 0.0
2018-May-19 05:58N 50°54' W 001°24'0 0.0
2018-May-19 05:28N 50°54' W 001°24'0 0.0
2018-May-19 04:58N 50°54' W 001°24'0 0.0
2018-May-19 04:29N 50°54' W 001°24'0 0.0
2018-May-19 03:59N 50°54' W 001°24'0 0.0
2018-May-19 03:29N 50°54' W 001°24'0 0.0
2018-May-19 03:00N 50°54' W 001°24'0 0.0
2018-May-19 02:30N 50°54' W 001°24'0 0.0
2018-May-19 02:00N 50°54' W 001°24'0 0.0
2018-May-19 01:28N 50°54' W 001°24'0 0.0
2018-May-19 00:58N 50°54' W 001°24'0 0.0
2018-May-19 00:28N 50°54' W 001°24'0 0.0
2018-May-18 23:59N 50°54' W 001°24'0 0.0
2018-May-18 23:29N 50°54' W 001°24'0 0.0
2018-May-18 22:59N 50°54' W 001°24'0 0.0
2018-May-18 22:30N 50°54' W 001°24'0 0.0
2018-May-18 22:00N 50°54' W 001°24'0 0.0
2018-May-18 21:30N 50°54' W 001°24'0 0.0
2018-May-18 20:55N 50°54' W 001°24'0 0.0
2018-May-18 20:28N 50°54' W 001°24'0 0.0
2018-May-18 19:58N 50°54' W 001°24'0 0.0
2018-May-18 19:26N 50°54' W 001°24'0 0.0
2018-May-18 18:59N 50°54' W 001°24'0 0.0
2018-May-18 18:29N 50°54' W 001°24'0 0.0
2018-May-18 18:00N 50°54' W 001°24'0 0.0
2018-May-18 17:30N 50°54' W 001°24'0 0.0
2018-May-18 17:00N 50°54' W 001°24'0 0.0
2018-May-18 16:28N 50°54' W 001°24'0 0.0
2018-May-18 15:58N 50°54' W 001°24'0 0.0
2018-May-18 15:28N 50°54' W 001°24'0 0.0
2018-May-18 14:59N 50°54' W 001°24'0 0.0
2018-May-18 14:29N 50°54' W 001°24'0 0.0
2018-May-18 13:59N 50°54' W 001°24'0 0.0
2018-May-18 13:30N 50°54' W 001°24'0 0.0
2018-May-18 13:00N 50°54' W 001°24'0 0.0
2018-May-18 12:30N 50°54' W 001°24'0 0.0
2018-May-18 11:58N 50°54' W 001°24'0 0.0
2018-May-18 11:28N 50°54' W 001°24'0 0.0
2018-May-18 10:58N 50°54' W 001°24'0 0.0
2018-May-18 10:26N 50°54' W 001°24'0 0.0
2018-May-18 09:59N 50°54' W 001°24'0 0.0
2018-May-18 09:29N 50°54' W 001°24'0 0.0
2018-May-18 09:00N 50°54' W 001°24'0 0.0
2018-May-18 08:30N 50°54' W 001°24'0 0.0
2018-May-18 08:00N 50°54' W 001°24'0 0.0
2018-May-18 07:28N 50°54' W 001°24'0 0.0
2018-May-18 06:58N 50°54' W 001°24'0 0.0
2018-May-18 06:28N 50°54' W 001°24'0 0.0
2018-May-18 05:59N 50°54' W 001°24'0 0.0
2018-May-18 05:29N 50°54' W 001°24'0 0.0
2018-May-18 04:59N 50°54' W 001°24'0 0.0
2018-May-18 04:30N 50°54' W 001°24'0 0.0
2018-May-18 04:00N 50°54' W 001°24'0 0.0
2018-May-18 03:30N 50°54' W 001°24'0 0.0
2018-May-18 02:55N 50°54' W 001°24'0 0.0
2018-May-18 02:28N 50°54' W 001°24'0 0.0
2018-May-18 01:58N 50°54' W 001°24'0 0.0
2018-May-18 01:29N 50°54' W 001°24'0 0.0
2018-May-18 00:59N 50°54' W 001°24'0 0.0
2018-May-18 00:29N 50°54' W 001°24'0 0.0
2018-May-18 00:00N 50°54' W 001°24'0 0.0
2018-May-17 23:30N 50°54' W 001°24'0 0.0
2018-May-17 23:00N 50°54' W 001°24'0 0.0
2018-May-17 22:28N 50°54' W 001°24'0 0.0
2018-May-17 21:58N 50°54' W 001°24'0 0.0
2018-May-17 21:28N 50°54' W 001°24'0 0.0
2018-May-17 20:59N 50°54' W 001°24'0 0.0
2018-May-17 20:29N 50°54' W 001°24'0 0.0
2018-May-17 19:59N 50°54' W 001°24'0 0.0
2018-May-17 19:30N 50°54' W 001°24'0 0.0
2018-May-17 19:00N 50°54' W 001°24'0 0.0
2018-May-17 18:30N 50°54' W 001°24'0 0.0
2018-May-17 17:58N 50°54' W 001°24'0 0.0
2018-May-17 17:28N 50°54' W 001°24'0 0.0
2018-May-17 16:58N 50°54' W 001°24'0 0.0
2018-May-17 16:29N 50°54' W 001°24'0 0.0
2018-May-17 15:59N 50°54' W 001°24'0 0.0
2018-May-17 15:29N 50°54' W 001°24'0 0.0
2018-May-17 15:00N 50°54' W 001°24'0 0.0
2018-May-17 14:30N 50°54' W 001°24'  
Track history (hours):
 
Tides and Currents Weather Stations Pressure Air Temp Water Temp Dewpoint Dewpoint Depression Visibility Wind Speed Wind Dir Waves Ship Positions

Oceanographic research ship James Cook (UK)

Last reported at 2018-May-27 14:00 UTC. Time now 2018-May-28 01:05 UTC.
Position N 49°00' W 016°24'.

Length 89.2 m; beam 18.6 m; draft 5.7 m.

Type: Other ship. MMSI: 235010700.

Wind from 330 at 15 knots

Barometer 1020.2 mb
Air temperature 12.9 ° C
Visibility: greater than 10.8 NM
Dewpoint 9.8 ° C
Water temperature 12.4 ° C

Date/timePositionNaut miles runAvg speedWind from/ knotsBaromVisibWave heightAir tempDewpointWater temp
2018-May-27 14:00N 49°00' W 016°24'13 1.3 330 / 151020.210.8 12.9 9.812.4
2018-May-27 04:00N 48°48' W 016°30'0 0.0 340 / 131020.710.8 11.0 9.212.8
2018-May-26 04:00N 48°48' W 016°30'23 1.8 020 / 181027.610.8 11.4 8.612.2
2018-May-25 15:00N 49°00' W 016°00'20 3.9 020 / 201029.210.8 12.7 8.712.3
2018-May-25 10:00N 49°00' W 016°30'12 0.6 010 / 191029.3 5.4 11.5 5.712.2
2018-May-24 15:00N 48°48' W 016°30'0 0.0 030 / 261028.0 12.5 7.312.5
2018-May-24 10:00N 48°48' W 016°30'0 0.0 010 / 271026.3 5.4 12.0 6.812.2
2018-May-24 03:00N 48°48' W 016°30'10 0.8 280 / 91023.510.8 11.810.812.3
2018-May-23 15:00N 48°54' W 016°18'6 1.2 170 / 101022.610.8 12.5 9.612.5
2018-May-23 10:00N 49°00' W 016°18'4 0.2 160 / 41023.1 5.4 13.3 9.612.4
2018-May-22 15:00N 49°00' W 016°24'4 0.8 030 / 51024.327.0 12.5 8.512.5
2018-May-22 10:00N 49°00' W 016°18'119 6.2 050 / 51023.7 5.4 12.0 6.812.3
2018-May-21 15:00N 48°18' W 013°30'13 3.2 040 / 281019.9 5.4 11.5 9.512.5
2018-May-21 11:00N 48°06' W 013°36'43 8.6 030 / 271018.3 5.4 12.010.512.5
2018-May-21 06:00N 48°30' W 012°42'11511.2 100 / 101017.0 5.4 12.111.012.7
2018-May-20 19:43N 49°05' W 009°55'210.5
2018-May-20 19:30N 49°06' W 009°52'1210.6
2018-May-20 18:22N 49°10' W 009°34'410.5
2018-May-20 18:00N 49°11' W 009°29'510.7
2018-May-20 17:30N 49°13' W 009°21'610.9
2018-May-20 16:59N 49°15' W 009°13'510.8
2018-May-20 16:30N 49°16' W 009°05'611.4
2018-May-20 16:00N 49°18' W 008°57'611.3
2018-May-20 15:31N 49°20' W 008°49'611.5
2018-May-20 15:00N 49°22' W 008°40'611.7
2018-May-20 14:30N 49°23' W 008°32'611.7
2018-May-20 14:00N 49°25' W 008°23'611.9
2018-May-20 13:30N 49°27' W 008°14'612.0
2018-May-20 13:00N 49°29' W 008°06'611.9
2018-May-20 12:30N 49°31' W 007°57'611.8
2018-May-20 12:01N 49°32' W 007°48'611.8
2018-May-20 11:30N 49°35' W 007°40'611.3
2018-May-20 11:00N 49°37' W 007°32'611.7
2018-May-20 10:30N 49°38' W 007°23'611.2
2018-May-20 10:00N 49°40' W 007°15'511.1
2018-May-20 09:30N 49°41' W 007°06'510.8
2018-May-20 09:00N 49°42' W 006°58'510.6
2018-May-20 08:30N 49°43' W 006°50'610.5
2018-May-20 07:55N 49°43' W 006°41'410.5
2018-May-20 07:30N 49°43' W 006°34'510.6
2018-May-20 07:00N 49°43' W 006°26'610.8
2018-May-20 06:30N 49°43' W 006°17'610.5
2018-May-20 05:57N 49°43' W 006°08'510.7
2018-May-20 05:30N 49°43' W 006°01'510.9
2018-May-20 05:00N 49°43' W 005°53'611.1
2018-May-20 04:30N 49°44' W 005°44'611.5
2018-May-20 04:00N 49°46' W 005°35'612.0
2018-May-20 03:30N 49°47' W 005°27'712.3
2018-May-20 02:57N 49°48' W 005°16'612.7
2018-May-20 02:30N 49°48' W 005°07'612.6
2018-May-20 02:00N 49°50' W 004°58'612.4
2018-May-20 01:30N 49°52' W 004°49'612.2
2018-May-20 01:00N 49°54' W 004°40'612.0
2018-May-20 00:30N 49°56' W 004°31'611.8
2018-May-20 00:00N 49°57' W 004°22'611.4
2018-May-19 23:30N 49°59' W 004°14'611.0
2018-May-19 23:00N 50°01' W 004°06'510.6
2018-May-19 22:30N 50°03' W 003°58'710.1
2018-May-19 21:51N 50°05' W 003°48'3 9.7
2018-May-19 21:30N 50°06' W 003°43'5 9.6
2018-May-19 21:00N 50°07' W 003°36'510.0
2018-May-19 20:30N 50°08' W 003°28'510.2
2018-May-19 20:00N 50°08' W 003°20'510.5
2018-May-19 19:30N 50°10' W 003°13'611.0
2018-May-19 19:00N 50°11' W 003°04'611.5
2018-May-19 18:31N 50°13' W 002°56'612.3
2018-May-19 18:00N 50°14' W 002°46'613.0
2018-May-19 17:30N 50°16' W 002°37'713.7
2018-May-19 17:00N 50°18' W 002°26'714.3
2018-May-19 16:30N 50°20' W 002°16'714.5
2018-May-19 16:01N 50°22' W 002°05'714.3
2018-May-19 15:31N 50°24' W 001°54'713.7
2018-May-19 15:00N 50°26' W 001°43'612.3
2018-May-19 14:31N 50°28' W 001°34'612.1
2018-May-19 14:00N 50°29' W 001°25'611.3
2018-May-19 13:30N 50°31' W 001°16'510.5
2018-May-19 13:00N 50°32' W 001°08'5 9.3
2018-May-19 12:30N 50°34' W 001°02'5 9.1
2018-May-19 12:00N 50°38' W 000°58'510.0
2018-May-19 11:31N 50°43' W 001°01'611.7
2018-May-19 11:00N 50°46' W 001°09'611.4
2018-May-19 10:30N 50°47' W 001°18'4 7.7
2018-May-19 10:00N 50°50' W 001°19'4 7.7
2018-May-19 09:30N 50°53' W 001°24'0 0.5
2018-May-19 08:59N 50°54' W 001°24'0 0.0
2018-May-19 08:29N 50°54' W 001°24'0 0.0
2018-May-19 07:59N 50°54' W 001°24'0 0.0
2018-May-19 07:30N 50°54' W 001°24'0 0.0
2018-May-19 07:00N 50°54' W 001°24'0 0.0
2018-May-19 06:30N 50°54' W 001°24'0 0.0
2018-May-19 05:58N 50°54' W 001°24'0 0.0
2018-May-19 05:28N 50°54' W 001°24'0 0.0
2018-May-19 04:58N 50°54' W 001°24'0 0.0
2018-May-19 04:29N 50°54' W 001°24'0 0.0
2018-May-19 03:59N 50°54' W 001°24'0 0.0
2018-May-19 03:29N 50°54' W 001°24'0 0.0
2018-May-19 03:00N 50°54' W 001°24'0 0.0
2018-May-19 02:30N 50°54' W 001°24'0 0.0
2018-May-19 02:00N 50°54' W 001°24'0 0.0
2018-May-19 01:28N 50°54' W 001°24'0 0.0
2018-May-19 00:58N 50°54' W 001°24'0 0.0
2018-May-19 00:28N 50°54' W 001°24'0 0.0
2018-May-18 23:59N 50°54' W 001°24'0 0.0
2018-May-18 23:29N 50°54' W 001°24'0 0.0
2018-May-18 22:59N 50°54' W 001°24'0 0.0
2018-May-18 22:30N 50°54' W 001°24'0 0.0
2018-May-18 22:00N 50°54' W 001°24'0 0.0
2018-May-18 21:30N 50°54' W 001°24'0 0.0
2018-May-18 20:55N 50°54' W 001°24'0 0.0
2018-May-18 20:28N 50°54' W 001°24'0 0.0
2018-May-18 19:58N 50°54' W 001°24'0 0.0
2018-May-18 19:26N 50°54' W 001°24'0 0.0
2018-May-18 18:59N 50°54' W 001°24'0 0.0
2018-May-18 18:29N 50°54' W 001°24'0 0.0
2018-May-18 18:00N 50°54' W 001°24'0 0.0
2018-May-18 17:30N 50°54' W 001°24'0 0.0
2018-May-18 17:00N 50°54' W 001°24'0 0.0
2018-May-18 16:28N 50°54' W 001°24'0 0.0
2018-May-18 15:58N 50°54' W 001°24'0 0.0
2018-May-18 15:28N 50°54' W 001°24'0 0.0
2018-May-18 14:59N 50°54' W 001°24'0 0.0
2018-May-18 14:29N 50°54' W 001°24'0 0.0
2018-May-18 13:59N 50°54' W 001°24'0 0.0
2018-May-18 13:30N 50°54' W 001°24'0 0.0
2018-May-18 13:00N 50°54' W 001°24'0 0.0
2018-May-18 12:30N 50°54' W 001°24'0 0.0
2018-May-18 11:58N 50°54' W 001°24'0 0.0
2018-May-18 11:28N 50°54' W 001°24'0 0.0
2018-May-18 10:58N 50°54' W 001°24'0 0.0
2018-May-18 10:26N 50°54' W 001°24'0 0.0
2018-May-18 09:59N 50°54' W 001°24'0 0.0
2018-May-18 09:29N 50°54' W 001°24'0 0.0
2018-May-18 09:00N 50°54' W 001°24'0 0.0
2018-May-18 08:30N 50°54' W 001°24'0 0.0
2018-May-18 08:00N 50°54' W 001°24'0 0.0
2018-May-18 07:28N 50°54' W 001°24'0 0.0
2018-May-18 06:58N 50°54' W 001°24'0 0.0
2018-May-18 06:28N 50°54' W 001°24'0 0.0
2018-May-18 05:59N 50°54' W 001°24'0 0.0
2018-May-18 05:29N 50°54' W 001°24'0 0.0
2018-May-18 04:59N 50°54' W 001°24'0 0.0
2018-May-18 04:30N 50°54' W 001°24'0 0.0
2018-May-18 04:00N 50°54' W 001°24'0 0.0
2018-May-18 03:30N 50°54' W 001°24'0 0.0
2018-May-18 02:55N 50°54' W 001°24'0 0.0
2018-May-18 02:28N 50°54' W 001°24'0 0.0
2018-May-18 01:58N 50°54' W 001°24'0 0.0
2018-May-18 01:29N 50°54' W 001°24'0 0.0
2018-May-18 00:59N 50°54' W 001°24'0 0.0
2018-May-18 00:29N 50°54' W 001°24'0 0.0
2018-May-18 00:00N 50°54' W 001°24'0 0.0
2018-May-17 23:30N 50°54' W 001°24'0 0.0
2018-May-17 23:00N 50°54' W 001°24'0 0.0
2018-May-17 22:28N 50°54' W 001°24'0 0.0
2018-May-17 21:58N 50°54' W 001°24'0 0.0
2018-May-17 21:28N 50°54' W 001°24'0 0.0
2018-May-17 20:59N 50°54' W 001°24'0 0.0
2018-May-17 20:29N 50°54' W 001°24'0 0.0
2018-May-17 19:59N 50°54' W 001°24'0 0.0
2018-May-17 19:30N 50°54' W 001°24'0 0.0
2018-May-17 19:00N 50°54' W 001°24'0 0.0
2018-May-17 18:30N 50°54' W 001°24'0 0.0
2018-May-17 17:58N 50°54' W 001°24'0 0.0
2018-May-17 17:28N 50°54' W 001°24'0 0.0
2018-May-17 16:58N 50°54' W 001°24'0 0.0
2018-May-17 16:29N 50°54' W 001°24'0 0.0
2018-May-17 15:59N 50°54' W 001°24'0 0.0
2018-May-17 15:29N 50°54' W 001°24'0 0.0
2018-May-17 15:00N 50°54' W 001°24'0 0.0
2018-May-17 14:30N 50°54' W 001°24'  

Dump ship's entire track history